createdAt,value
2018-05-15T00:01:33.366Z,17.80
2018-05-15T00:04:00.833Z,17.80
2018-05-15T00:06:29.093Z,17.70
2018-05-15T00:08:56.562Z,17.70
2018-05-15T00:11:24.809Z,17.60
2018-05-15T00:13:52.277Z,17.60
2018-05-15T00:16:19.766Z,17.60
2018-05-15T00:18:47.243Z,17.50
2018-05-15T00:21:14.750Z,17.50
2018-05-15T00:23:42.989Z,17.50
2018-05-15T00:26:10.461Z,17.40
2018-05-15T00:28:37.949Z,17.40
2018-05-15T00:31:06.182Z,17.20
2018-05-15T00:33:33.854Z,17.20
2018-05-15T00:36:01.322Z,17.20
2018-05-15T00:38:28.805Z,17.10
2018-05-15T00:40:56.276Z,17.10
2018-05-15T00:43:23.758Z,17.10
2018-05-15T00:45:51.229Z,17.10
2018-05-15T00:48:18.717Z,17.10
2018-05-15T00:50:46.953Z,16.90
2018-05-15T00:53:14.475Z,17.00
2018-05-15T00:55:44.620Z,16.90
2018-05-15T00:58:12.148Z,16.90
2018-05-15T01:00:40.357Z,16.80
2018-05-15T01:05:41.733Z,16.80
2018-05-15T01:08:09.220Z,16.80
2018-05-15T01:10:37.457Z,16.60
2018-05-15T01:13:04.933Z,16.50
2018-05-15T01:15:33.186Z,16.30
2018-05-15T01:18:00.657Z,16.30
2018-05-15T01:20:28.136Z,16.20
2018-05-15T01:22:55.612Z,16.10
2018-05-15T01:25:23.093Z,16.10
2018-05-15T01:27:50.561Z,16.00
2018-05-15T01:30:18.044Z,16.00
2018-05-15T01:32:46.282Z,16.00
2018-05-15T01:35:13.811Z,16.00
2018-05-15T01:37:41.278Z,15.90
2018-05-15T01:40:08.765Z,15.90
2018-05-15T01:42:36.229Z,16.00
2018-05-15T01:45:03.713Z,15.90
2018-05-15T01:47:31.941Z,15.80
2018-05-15T01:49:59.426Z,15.80
2018-05-15T01:52:27.660Z,15.70
2018-05-15T01:54:55.132Z,15.60
2018-05-15T01:57:22.993Z,15.80
2018-05-15T01:59:50.457Z,15.80
2018-05-15T02:02:17.938Z,15.70
2018-05-15T02:04:46.169Z,15.70
2018-05-15T02:07:13.657Z,15.60
2018-05-15T02:09:41.129Z,15.60
2018-05-15T02:12:09.380Z,15.50
2018-05-15T02:14:36.849Z,15.50
2018-05-15T02:17:05.099Z,15.40
2018-05-15T02:19:32.573Z,15.30
2018-05-15T02:22:00.053Z,15.30
2018-05-15T02:24:27.522Z,15.30
2018-05-15T02:26:55.359Z,15.30
2018-05-15T02:29:23.594Z,15.30
2018-05-15T02:31:51.086Z,15.30
2018-05-15T02:34:19.319Z,15.20
2018-05-15T02:36:46.785Z,15.20
2018-05-15T02:39:14.284Z,15.20
2018-05-15T02:41:42.517Z,15.20
2018-05-15T02:44:10.005Z,15.10
2018-05-15T02:46:38.237Z,15.10
2018-05-15T02:49:05.727Z,15.00
2018-05-15T02:51:33.969Z,15.20
2018-05-15T02:54:01.450Z,15.20
2018-05-15T02:56:28.922Z,15.10
2018-05-15T02:58:57.183Z,15.00
2018-05-15T03:01:24.657Z,15.00
2018-05-15T03:03:52.942Z,15.00
2018-05-15T03:06:20.411Z,15.00
2018-05-15T03:08:47.901Z,15.00
2018-05-15T03:11:15.369Z,15.00
2018-05-15T03:13:42.857Z,14.80
2018-05-15T03:16:11.113Z,14.60
2018-05-15T03:18:39.353Z,14.50
2018-05-15T03:21:06.837Z,14.50
2018-05-15T03:23:34.301Z,14.50
2018-05-15T03:26:02.557Z,14.30
2018-05-15T03:28:30.017Z,14.30
2018-05-15T03:30:57.502Z,14.20
2018-05-15T03:33:25.737Z,14.30
2018-05-15T03:35:53.217Z,14.20
2018-05-15T03:38:20.688Z,14.20
2018-05-15T03:40:48.949Z,14.10
2018-05-15T03:43:17.189Z,14.00
2018-05-15T03:45:44.677Z,14.00
2018-05-15T03:48:12.910Z,13.90
2018-05-15T03:50:40.391Z,13.80
2018-05-15T03:53:07.862Z,13.80
2018-05-15T03:55:36.129Z,13.60
2018-05-15T03:58:03.593Z,13.60
2018-05-15T04:00:43.873Z,13.50
2018-05-15T04:03:23.244Z,13.50
2018-05-15T04:06:02.735Z,13.50
2018-05-15T04:08:31.057Z,13.40
2018-05-15T04:10:58.507Z,13.30
2018-05-15T04:13:26.718Z,13.30
2018-05-15T04:15:54.186Z,13.30
2018-05-15T04:18:22.433Z,13.40
2018-05-15T04:20:49.905Z,13.30
2018-05-15T04:23:17.389Z,13.40
2018-05-15T04:25:44.860Z,13.40
2018-05-15T04:28:12.386Z,13.40
2018-05-15T04:30:39.825Z,13.40
2018-05-15T04:33:07.306Z,13.40
2018-05-15T04:35:35.549Z,13.60
2018-05-15T04:38:03.037Z,13.60
2018-05-15T04:40:30.512Z,13.70
2018-05-15T04:42:57.993Z,13.80
2018-05-15T04:45:25.465Z,13.80
2018-05-15T04:47:52.941Z,13.80
2018-05-15T04:50:21.256Z,13.80
2018-05-15T04:52:48.730Z,13.80
2018-05-15T04:55:16.215Z,13.90
2018-05-15T04:57:43.684Z,13.90
2018-05-15T05:00:11.965Z,14.00
2018-05-15T05:02:40.209Z,14.10
2018-05-15T05:05:07.694Z,14.10
2018-05-15T05:07:35.929Z,14.30
2018-05-15T05:10:03.413Z,14.30
2018-05-15T05:12:30.889Z,14.40
2018-05-15T05:14:59.142Z,14.70
2018-05-15T05:17:26.614Z,14.70
2018-05-15T05:19:54.884Z,15.20
2018-05-15T05:22:23.113Z,15.60
2018-05-15T05:24:50.592Z,15.60
2018-05-15T05:27:18.065Z,16.40
2018-05-15T05:29:46.316Z,18.40
2018-05-15T05:32:13.802Z,18.40
2018-05-15T05:34:42.042Z,20.30
2018-05-15T05:37:09.525Z,20.20
2018-05-15T05:39:37.761Z,21.50
2018-05-15T05:42:05.245Z,21.50
2018-05-15T05:44:32.717Z,22.00
2018-05-15T05:47:00.966Z,22.90
2018-05-15T05:49:28.432Z,22.90
2018-05-15T05:51:55.989Z,23.30
2018-05-15T05:54:23.393Z,23.60
2018-05-15T05:56:52.013Z,24.00
2018-05-15T05:59:19.482Z,23.90
2018-05-15T06:01:46.961Z,23.90
2018-05-15T06:04:15.197Z,24.50
2018-05-15T06:06:42.686Z,24.40
2018-05-15T06:09:10.927Z,25.50
2018-05-15T06:11:38.414Z,25.40
2018-05-15T06:14:06.649Z,25.40
2018-05-15T06:16:34.125Z,25.40
2018-05-15T06:19:01.593Z,25.70
2018-05-15T06:21:29.864Z,24.90
2018-05-15T06:23:57.329Z,24.90
2018-05-15T06:26:25.561Z,25.40
2018-05-15T06:28:53.048Z,25.30
2018-05-15T06:31:21.286Z,24.80
2018-05-15T06:33:48.769Z,24.80
2018-05-15T06:36:16.237Z,24.10
2018-05-15T06:38:44.493Z,23.60
2018-05-15T06:41:11.963Z,23.50
2018-05-15T06:43:40.219Z,25.00
2018-05-15T06:46:07.685Z,25.00
2018-05-15T06:48:35.166Z,26.40
2018-05-15T06:51:03.401Z,26.80
2018-05-15T06:53:30.893Z,26.80
2018-05-15T06:55:59.126Z,28.50
2018-05-15T06:58:26.650Z,28.40
2018-05-15T07:00:54.118Z,28.60
2018-05-15T07:03:21.605Z,28.50
2018-05-15T07:05:49.083Z,27.80
2018-05-15T07:08:17.369Z,27.90
2018-05-15T07:10:45.602Z,28.90
2018-05-15T07:13:13.083Z,28.90
2018-05-15T07:15:41.368Z,28.40
2018-05-15T07:18:09.605Z,27.80
2018-05-15T07:20:37.090Z,27.70
2018-05-15T07:23:05.333Z,28.30
2018-05-15T07:25:32.826Z,28.30
2018-05-15T07:28:01.065Z,29.20
2018-05-15T07:30:28.801Z,29.10
2018-05-15T07:32:57.810Z,27.30
2018-05-15T07:35:26.069Z,28.00
2018-05-15T07:37:53.539Z,28.00
2018-05-15T07:40:21.119Z,28.10
2018-05-15T07:42:49.281Z,29.00
2018-05-15T07:45:16.766Z,29.00
2018-05-15T07:47:45.015Z,28.60
2018-05-15T07:50:12.573Z,28.60
2018-05-15T07:52:40.813Z,30.10
2018-05-15T07:55:08.287Z,30.10
2018-05-15T07:57:35.773Z,29.90
2018-05-15T08:00:03.242Z,29.80
2018-05-15T08:02:31.494Z,29.70
2018-05-15T08:04:58.969Z,29.60
2018-05-15T08:07:27.221Z,30.00
2018-05-15T08:09:54.710Z,30.00
2018-05-15T08:12:22.962Z,30.50
2018-05-15T08:14:50.431Z,30.50
2018-05-15T08:19:46.741Z,31.70
2018-05-15T08:22:14.263Z,29.30
2018-05-15T08:24:41.733Z,28.90
2018-05-15T08:27:09.218Z,29.10
2018-05-15T08:29:36.720Z,29.50
2018-05-15T08:32:04.950Z,29.80
2018-05-15T08:34:32.431Z,29.70
2018-05-15T08:37:00.665Z,30.60
2018-05-15T08:39:28.149Z,30.60
2018-05-15T08:41:56.389Z,30.90
2018-05-15T08:44:23.872Z,30.90
2018-05-15T08:46:52.117Z,32.20
2018-05-15T08:49:19.606Z,32.10
2018-05-15T08:51:47.841Z,33.10
2018-05-15T08:54:15.328Z,33.00
2018-05-15T08:56:43.581Z,32.20
2018-05-15T08:59:11.067Z,32.20
2018-05-15T09:01:38.533Z,32.90
2018-05-15T09:04:06.795Z,32.40
2018-05-15T09:06:34.268Z,32.30
2018-05-15T09:09:02.524Z,31.80
2018-05-15T09:11:29.996Z,31.80
2018-05-15T09:13:58.245Z,31.90
2018-05-15T09:16:25.728Z,31.90
2018-05-15T09:18:53.966Z,32.30
2018-05-15T09:21:21.445Z,32.30
2018-05-15T09:23:49.682Z,33.70
2018-05-15T09:26:17.169Z,33.70
2018-05-15T09:28:44.638Z,33.30
2018-05-15T09:31:12.898Z,32.60
2018-05-15T09:33:40.365Z,32.60
2018-05-15T09:36:08.614Z,31.10
2018-05-15T09:38:36.083Z,31.00
2018-05-15T09:41:04.347Z,31.40
2018-05-15T09:46:32.117Z,32.80
2018-05-15T09:48:59.595Z,31.80
2018-05-15T09:51:27.077Z,30.50
2018-05-15T09:53:55.309Z,31.70
2018-05-15T09:56:22.789Z,31.70
2018-05-15T09:58:51.026Z,31.30
2018-05-15T10:01:18.509Z,31.30
2018-05-15T10:03:45.980Z,30.90
2018-05-15T10:06:14.241Z,29.60
2018-05-15T10:08:41.713Z,29.50
2018-05-15T10:11:09.945Z,28.10
2018-05-15T10:13:37.437Z,28.00
2018-05-15T10:16:05.686Z,30.30
2018-05-15T10:18:33.169Z,30.30
2018-05-15T10:21:01.409Z,30.30
2018-05-15T10:23:28.893Z,30.20
2018-05-15T10:25:57.142Z,29.10
2018-05-15T10:28:24.630Z,29.00
2018-05-15T10:30:52.870Z,28.20
2018-05-15T10:33:20.353Z,28.10
2018-05-15T10:35:48.593Z,27.70
2018-05-15T10:38:16.077Z,27.60
2018-05-15T10:40:43.545Z,27.90
2018-05-15T10:43:11.790Z,28.20
2018-05-15T10:45:39.898Z,28.20
2018-05-15T10:48:08.195Z,29.60
2018-05-15T10:50:35.662Z,29.60
2018-05-15T10:53:03.149Z,28.90
2018-05-15T10:55:30.619Z,28.30
2018-05-15T10:57:58.081Z,27.80
2018-05-15T11:00:26.334Z,28.60
2018-05-15T11:02:53.805Z,28.60
2018-05-15T11:05:21.290Z,28.30
2018-05-15T11:07:48.769Z,28.40
2018-05-15T11:10:16.253Z,28.60
2018-05-15T11:12:43.752Z,29.30
2018-05-15T11:15:11.993Z,30.90
2018-05-15T11:17:39.467Z,30.80
2018-05-15T11:20:19.571Z,31.50
2018-05-15T11:22:59.127Z,31.40
2018-05-15T11:25:26.609Z,31.10
2018-05-15T11:27:54.849Z,32.20
2018-05-15T11:30:22.422Z,32.20
2018-05-15T11:32:50.586Z,32.70
2018-05-15T11:35:18.073Z,32.70
2018-05-15T11:37:46.311Z,30.90
2018-05-15T11:40:13.777Z,30.80
2018-05-15T11:42:41.261Z,29.70
2018-05-15T11:45:09.500Z,29.50
2018-05-15T11:47:37.206Z,29.40
2018-05-15T11:50:06.637Z,30.70
2018-05-15T11:52:33.245Z,30.70
2018-05-15T11:55:00.212Z,32.00
2018-05-15T11:57:27.705Z,31.40
2018-05-15T11:59:55.329Z,29.10
2018-05-15T12:02:22.805Z,28.30
2018-05-15T12:04:50.993Z,27.60
2018-05-15T12:07:18.476Z,27.60
2018-05-15T12:09:46.731Z,29.70
2018-05-15T12:12:15.010Z,29.80
2018-05-15T12:14:42.483Z,29.80
2018-05-15T12:17:10.808Z,29.50
2018-05-15T12:19:38.309Z,29.50
2018-05-15T12:22:06.541Z,28.60
2018-05-15T12:24:34.826Z,27.60
2018-05-15T12:27:02.286Z,27.50
2018-05-15T12:29:29.781Z,27.60
2018-05-15T12:31:58.053Z,27.50
2018-05-15T12:34:26.303Z,28.30
2018-05-15T12:36:53.773Z,28.30
2018-05-15T12:39:22.028Z,28.90
2018-05-15T12:41:49.636Z,28.90
2018-05-15T12:44:17.798Z,28.50
2018-05-15T12:46:45.369Z,28.40
2018-05-15T12:49:12.773Z,27.70
2018-05-15T12:51:40.241Z,27.20
2018-05-15T12:54:08.544Z,26.90
2018-05-15T12:56:35.978Z,26.90
2018-05-15T12:59:04.233Z,25.90
2018-05-15T13:01:31.697Z,25.90
2018-05-15T13:03:59.185Z,26.10
2018-05-15T13:06:26.656Z,27.40
2018-05-15T13:08:54.491Z,28.10
2018-05-15T13:11:22.749Z,27.80
2018-05-15T13:13:50.227Z,27.80
2018-05-15T13:16:18.481Z,26.40
2018-05-15T13:18:45.941Z,26.40
2018-05-15T13:21:14.192Z,25.90
2018-05-15T13:23:41.662Z,25.90
2018-05-15T13:26:09.146Z,25.90
2018-05-15T13:28:36.618Z,26.20
2018-05-15T13:31:04.103Z,27.30
2018-05-15T13:33:31.570Z,28.10
2018-05-15T13:35:59.091Z,28.70
2018-05-15T13:38:26.566Z,28.80
2018-05-15T13:40:54.041Z,28.60
2018-05-15T13:43:21.513Z,27.70
2018-05-15T13:45:48.981Z,26.30
2018-05-15T13:48:17.226Z,25.60
2018-05-15T13:50:44.693Z,25.60
2018-05-15T13:53:12.178Z,25.90
2018-05-15T13:55:39.652Z,26.80
2018-05-15T13:58:07.133Z,27.20
2018-05-15T14:00:34.606Z,27.10
2018-05-15T14:03:02.093Z,27.20
2018-05-15T14:05:30.329Z,28.20
2018-05-15T14:07:57.819Z,28.20
2018-05-15T14:10:26.057Z,28.30
2018-05-15T14:12:53.542Z,28.30
2018-05-15T14:15:21.786Z,28.30
2018-05-15T14:17:49.277Z,28.30
2018-05-15T14:20:17.513Z,28.30
2018-05-15T14:22:45.001Z,28.30
2018-05-15T14:25:13.256Z,28.40
2018-05-15T14:27:40.732Z,28.40
2018-05-15T14:30:08.991Z,26.70
2018-05-15T14:32:36.461Z,26.70
2018-05-15T14:35:04.713Z,26.40
2018-05-15T14:37:32.186Z,26.30
2018-05-15T14:39:59.669Z,26.70
2018-05-15T14:42:38.912Z,27.40
2018-05-15T14:45:06.401Z,27.90
2018-05-15T14:47:33.869Z,28.20
2018-05-15T14:50:01.357Z,28.40
2018-05-15T14:52:29.590Z,27.60
2018-05-15T14:54:57.073Z,27.60
2018-05-15T14:57:25.417Z,26.50
2018-05-15T14:59:52.826Z,26.50
2018-05-15T15:02:20.403Z,26.20
2018-05-15T15:04:47.881Z,26.00
2018-05-15T15:07:15.377Z,26.00
2018-05-15T15:09:43.609Z,25.80
2018-05-15T15:12:11.093Z,25.80
2018-05-15T15:14:38.568Z,25.80
2018-05-15T15:17:06.829Z,25.70
2018-05-15T15:19:34.292Z,25.70
2018-05-15T15:22:02.546Z,25.70
2018-05-15T15:24:30.017Z,25.70
2018-05-15T15:26:57.498Z,25.90
2018-05-15T15:29:24.965Z,26.10
2018-05-15T15:31:52.449Z,26.20
2018-05-15T15:34:19.913Z,26.10
2018-05-15T15:36:48.174Z,26.10
2018-05-15T15:39:15.645Z,26.00
2018-05-15T15:41:43.134Z,26.20
2018-05-15T15:44:11.369Z,26.10
2018-05-15T15:46:38.857Z,26.10
2018-05-15T15:49:07.090Z,25.90
2018-05-15T15:51:34.560Z,25.90
2018-05-15T15:54:02.050Z,25.80
2018-05-15T15:56:30.284Z,25.20
2018-05-15T15:58:57.765Z,25.10
2018-05-15T16:01:25.237Z,25.20
2018-05-15T16:03:53.489Z,24.80
2018-05-15T16:06:20.953Z,24.80
2018-05-15T16:08:48.438Z,24.80
2018-05-15T16:11:15.914Z,24.80
2018-05-15T16:13:43.437Z,24.70
2018-05-15T16:16:11.670Z,24.80
2018-05-15T16:18:39.161Z,24.80
2018-05-15T16:21:07.394Z,24.90
2018-05-15T16:23:34.902Z,24.80
2018-05-15T16:26:03.133Z,24.80
2018-05-15T16:28:30.692Z,24.80
2018-05-15T16:30:58.873Z,24.50
2018-05-15T16:33:26.345Z,24.50
2018-05-15T16:35:53.825Z,24.50
2018-05-15T16:38:21.400Z,24.60
2018-05-15T16:40:48.885Z,24.60
2018-05-15T16:43:16.358Z,24.70
2018-05-15T16:45:43.846Z,24.90
2018-05-15T16:48:11.427Z,24.90
2018-05-15T16:50:38.909Z,24.90
2018-05-15T16:53:06.381Z,24.70
2018-05-15T16:55:33.869Z,24.70
2018-05-15T16:58:02.103Z,24.70
2018-05-15T17:00:29.587Z,24.70
2018-05-15T17:02:57.821Z,24.60
2018-05-15T17:05:25.309Z,24.60
2018-05-15T17:07:52.873Z,24.40
2018-05-15T17:10:20.265Z,24.30
2018-05-15T17:12:47.745Z,24.30
2018-05-15T17:15:15.217Z,24.30
2018-05-15T17:17:42.762Z,24.30
2018-05-15T17:20:10.949Z,24.20
2018-05-15T17:22:38.442Z,24.20
2018-05-15T17:25:06.679Z,24.20
2018-05-15T17:27:34.165Z,24.10
2018-05-15T17:30:01.645Z,24.10
2018-05-15T17:32:29.136Z,24.10
2018-05-15T17:34:56.601Z,24.00
2018-05-15T17:37:24.094Z,24.00
2018-05-15T17:39:52.333Z,24.00
2018-05-15T17:42:19.817Z,24.00
2018-05-15T17:44:48.053Z,23.80
2018-05-15T17:47:15.540Z,23.80
2018-05-15T17:49:43.773Z,23.60
2018-05-15T17:52:11.245Z,23.60
2018-05-15T17:54:38.733Z,23.50
2018-05-15T17:57:07.036Z,23.40
2018-05-15T17:59:34.521Z,23.40
2018-05-15T18:02:01.989Z,23.50
2018-05-15T18:04:29.478Z,23.40
2018-05-15T18:06:57.709Z,23.30
2018-05-15T18:09:25.193Z,23.30
2018-05-15T18:11:53.429Z,23.30
2018-05-15T18:14:20.925Z,23.30
2018-05-15T18:16:49.157Z,23.20
2018-05-15T18:19:16.649Z,23.20
2018-05-15T18:21:44.168Z,23.20
2018-05-15T18:24:12.377Z,23.00
2018-05-15T18:26:39.841Z,23.00
2018-05-15T18:29:08.114Z,22.90
2018-05-15T18:31:36.359Z,22.80
2018-05-15T18:34:03.885Z,22.80
2018-05-15T18:36:31.374Z,22.70
2018-05-15T18:38:58.930Z,22.70
2018-05-15T18:41:27.117Z,22.50
2018-05-15T18:43:54.598Z,22.50
2018-05-15T18:46:22.853Z,22.50
2018-05-15T18:48:50.321Z,22.40
2018-05-15T18:51:18.572Z,22.40
2018-05-15T18:53:46.050Z,22.30
2018-05-15T18:56:14.317Z,22.20
2018-05-15T18:58:41.785Z,22.20
2018-05-15T19:01:10.033Z,22.00
2018-05-15T19:03:37.546Z,22.00
2018-05-15T19:06:05.034Z,21.90
2018-05-15T19:08:32.549Z,21.90
2018-05-15T19:11:00.039Z,21.80
2018-05-15T19:13:27.543Z,21.70
2018-05-15T19:15:55.793Z,21.30
2018-05-15T19:18:23.279Z,21.30
2018-05-15T19:20:51.517Z,21.10
2018-05-15T19:23:19.042Z,21.00
2018-05-15T19:25:46.513Z,21.00
2018-05-15T19:28:14.001Z,21.00
2018-05-15T19:30:41.472Z,21.00
2018-05-15T19:33:08.971Z,21.00
2018-05-15T19:35:41.327Z,20.90
2018-05-15T19:38:08.825Z,20.80
2018-05-15T19:40:42.658Z,20.70
2018-05-15T19:43:10.911Z,20.50
2018-05-15T19:45:38.379Z,20.50
2018-05-15T19:48:06.637Z,20.30
2018-05-15T19:50:34.109Z,20.30
2018-05-15T19:53:02.349Z,20.20
2018-05-15T19:55:29.956Z,20.10
2018-05-15T19:57:57.435Z,20.00
2018-05-15T20:00:24.916Z,19.90
2018-05-15T20:02:52.382Z,19.90
2018-05-15T20:05:20.024Z,19.80
2018-05-15T20:07:47.502Z,19.70
2018-05-15T20:10:14.993Z,19.70
2018-05-15T20:12:43.225Z,19.50
2018-05-15T20:15:10.711Z,19.50
2018-05-15T20:17:38.993Z,19.40
2018-05-15T20:20:07.241Z,19.40
2018-05-15T20:22:34.720Z,19.30
2018-05-15T20:25:02.973Z,19.20
2018-05-15T20:27:30.442Z,19.20
2018-05-15T20:29:57.929Z,19.10
2018-05-15T20:32:25.395Z,19.00
2018-05-15T20:34:52.926Z,19.00
2018-05-15T20:37:20.369Z,18.80
2018-05-15T20:39:48.605Z,18.70
2018-05-15T20:42:16.114Z,18.60
2018-05-15T20:44:44.337Z,18.40
2018-05-15T20:47:11.822Z,18.40
2018-05-15T20:49:39.288Z,18.40
2018-05-15T20:52:07.635Z,18.20
2018-05-15T20:54:35.797Z,18.10
2018-05-15T20:57:03.286Z,18.10
2018-05-15T20:59:30.760Z,18.10
2018-05-15T21:01:59.017Z,18.10
2018-05-15T21:04:26.485Z,18.00
2018-05-15T21:06:54.742Z,17.90
2018-05-15T21:09:22.245Z,17.90
2018-05-15T21:11:49.733Z,17.90
2018-05-15T21:14:17.217Z,17.90
2018-05-15T21:16:45.509Z,17.80
2018-05-15T21:19:13.741Z,17.70
2018-05-15T21:21:41.213Z,17.70
2018-05-15T21:24:09.049Z,17.60
2018-05-15T21:26:36.526Z,17.60
2018-05-15T21:29:04.018Z,17.50
2018-05-15T21:31:31.496Z,17.40
2018-05-15T21:33:58.974Z,17.40
2018-05-15T21:36:26.445Z,17.50
2018-05-15T21:38:53.933Z,17.40
2018-05-15T21:41:22.161Z,17.20
2018-05-15T21:43:49.648Z,17.20
2018-05-15T21:46:17.118Z,17.20
2018-05-15T21:48:45.366Z,17.20
2018-05-15T21:51:12.832Z,17.10
2018-05-15T21:53:40.317Z,17.10
2018-05-15T21:56:07.789Z,17.10
2018-05-15T21:58:35.279Z,17.00
2018-05-15T22:01:02.757Z,17.00
2018-05-15T22:03:30.243Z,17.00
2018-05-15T22:05:57.718Z,17.00
2018-05-15T22:08:25.185Z,17.00
2018-05-15T22:10:53.581Z,16.90
2018-05-15T22:13:33.594Z,17.00
2018-05-15T22:16:12.927Z,17.00
2018-05-15T22:18:52.245Z,17.00
2018-05-15T22:21:31.677Z,17.00
2018-05-15T22:23:59.465Z,17.10
2018-05-15T22:26:26.933Z,17.10
2018-05-15T22:28:54.406Z,17.40
2018-05-15T22:31:21.941Z,17.50
2018-05-15T22:33:49.488Z,17.70
2018-05-15T22:36:16.961Z,17.80
2018-05-15T22:38:44.444Z,17.90
2018-05-15T22:41:11.918Z,18.00
2018-05-15T22:43:40.169Z,18.10
2018-05-15T22:46:07.641Z,18.10
2018-05-15T22:48:35.121Z,18.00
2018-05-15T22:51:02.606Z,17.90
2018-05-15T22:53:30.093Z,17.70
2018-05-15T22:55:59.066Z,17.50
2018-05-15T22:58:26.554Z,17.50
2018-05-15T23:00:54.021Z,17.50
2018-05-15T23:03:22.257Z,17.40
2018-05-15T23:05:49.737Z,17.40
2018-05-15T23:08:17.205Z,17.50
2018-05-15T23:10:45.453Z,17.40
2018-05-15T23:13:12.925Z,17.40
2018-05-15T23:15:40.463Z,17.40
2018-05-15T23:18:07.889Z,17.40
2018-05-15T23:20:35.387Z,17.40
2018-05-15T23:23:02.858Z,17.30
2018-05-15T23:25:31.113Z,17.30
2018-05-15T23:27:58.586Z,17.30
2018-05-15T23:30:26.813Z,17.30
2018-05-15T23:32:54.293Z,17.30
2018-05-15T23:35:21.766Z,17.30
2018-05-15T23:37:49.260Z,17.40
2018-05-15T23:40:16.730Z,17.40
2018-05-15T23:42:44.213Z,17.40
2018-05-15T23:45:11.692Z,17.30
2018-05-15T23:47:39.961Z,17.30
2018-05-15T23:50:07.425Z,17.30
2018-05-15T23:52:35.695Z,17.40
2018-05-15T23:55:03.163Z,17.30
2018-05-15T23:57:31.397Z,17.30
2018-05-15T23:59:58.880Z,17.30
